CIG weather

Craig Moffat Airport
Craig, Colorado, United States

Public forecast

Using degrees Fahrenheit for public forecast. Weather courtesy of forecast.io.

METAR (pilot weather report)

Retrieved 2019/09/15 03:53 UTC (38 minutes ago):

KCAG 150353Z AUTO 09005KT 10SM CLR 12/01 A3028 RMK AO2 SLP210 T01170011

TAF (pilot weather forecast)

Forecast is more than 12 hours old.

Closest forecast is Yampa Valley Airport, 13.9 nm (25.8 km) E. Retrieved 2019/09/14 00:36 UTC (1 day ago):

TAF KHDN 142334Z 1500/1524 30010G18KT P6SM SKC FM150300 12010KT P6SM SKC FM151900 29010G18KT P6SM FEW150 SCT250